CST,Max TemperatureF,Mean TemperatureF,Min TemperatureF,Max Dew PointF,MeanDew PointF,Min DewpointF,Max Humidity, Mean Humidity, Min Humidity, Max Sea Level PressureIn, Mean Sea Level PressureIn, Min Sea Level PressureIn, Max VisibilityMiles, Mean VisibilityMiles, Min VisibilityMiles, Max Wind SpeedMPH, Mean Wind SpeedMPH, Max Gust SpeedMPH,PrecipitationIn, CloudCover, Events, WindDirDegrees
2013-11-1,69,58,46,41,37,36,71,50,28,29.97,29.83,29.75,10,10,10,17,8,26,0.00,1,,285
2013-11-2,57,48,39,36,33,28,70,54,41,30.23,30.11,29.96,10,10,7,15,7,23,0.00,2,,310
2013-11-3,60,45,30,36,31,25,80,57,31,30.29,30.20,30.09,10,8,0,9,2,,0.00,1,,139
2013-11-4,55,52,48,45,38,34,76,59,47,30.22,30.15,30.09,10,9,5,9,5,17,0.00,3,,163
2013-11-5,60,56,51,52,47,45,77,73,63,30.21,30.13,30.02,10,7,2,8,3,,0.00,7,,125
2013-11-6,60,50,41,54,41,28,77,68,57,30.33,30.13,29.93,10,9,4,18,8,28,0.00,8,,301
2013-11-7,60,46,32,34,29,25,75,55,31,30.45,30.37,30.32,10,10,6,14,4,18,0.00,1,,301
2013-11-8,64,47,30,34,30,25,80,53,28,30.37,30.26,30.13,10,9,0,9,2,17,0.00,0,,155
2013-11-9,62,52,41,39,36,30,71,57,39,30.26,30.18,30.13,10,10,10,10,2,,0.00,5,,209
2013-11-10,66,54,41,39,35,30,76,53,30,30.40,30.32,30.26,10,10,2,10,3,,0.00,1,,46
2013-11-11,69,52,35,46,38,28,76,58,38,30.36,30.24,30.17,10,10,8,17,2,28,0.00,5,,328
2013-11-12,46,36,26,34,16,9,66,45,27,30.72,30.63,30.37,10,10,10,16,11,25,0.00,3,,3
2013-11-13,48,32,17,16,12,10,73,45,23,30.69,30.55,30.35,10,10,5,7,1,,0.00,0,,176
2013-11-14,57,42,26,30,18,12,59,38,23,30.35,30.20,30.06,10,10,8,12,3,18,0.00,1,,171
2013-11-15,55,48,42,45,36,27,72,61,46,30.07,30.00,29.92,10,10,8,9,4,,0.00,7,,156
2013-11-16,68,62,55,59,51,45,78,66,60,29.92,29.79,29.67,10,10,4,16,8,31,0.00,7,Thunderstorm,174
2013-11-17,80,68,55,61,43,19,78,42,18,30.06,29.74,29.58,10,10,10,28,11,39,0.00,1,,252
2013-11-18,64,52,39,34,25,19,56,38,19,30.29,30.20,30.06,10,10,10,13,5,20,0.00,0,,343
2013-11-19,57,45,33,28,24,18,70,47,26,30.32,30.23,30.15,10,10,3,13,3,17,0.00,0,,113
2013-11-20,62,50,37,30,24,19,60,42,20,30.15,30.07,29.95,10,10,8,12,4,18,0.00,3,,117
2013-11-21,55,50,46,46,41,30,77,69,41,30.20,30.10,30.04,10,6,0,9,3,,0.00,8,Thunderstorm,47
2013-11-22,53,44,35,46,31,25,77,69,61,30.49,30.40,30.19,10,10,1,16,9,26,0.00,8,,346
2013-11-23,41,34,24,27,17,5,75,49,31,30.66,30.57,30.49,10,10,7,15,9,23,0.00,4,,2
2013-11-24,28,22,17,9,6,3,58,46,37,30.69,30.58,30.40,10,10,10,12,7,16,0.00,2,,67
2013-11-25,33,30,28,27,18,7,75,60,40,30.39,30.26,30.17,10,10,5,9,3,,0.00,8,,118
2013-11-26,48,39,30,27,23,12,75,56,42,30.26,30.14,30.05,10,10,6,20,6,29,0.00,4,,337
2013-11-27,37,29,21,12,9,5,63,45,30,30.40,30.33,30.27,10,10,10,15,9,28,0.00,0,,326
2013-11-28,57,37,17,27,18,9,74,52,28,30.44,30.33,30.28,10,10,9,12,1,,0.00,0,,258
2013-11-29,55,40,24,28,24,18,75,58,36,30.53,30.44,30.35,10,10,8,7,1,,0.00,0,,113
2013-11-30,59,44,28,37,30,19,81,59,41,30.35,30.23,30.13,10,10,9,14,3,18,0.00,0,,183